sensor_id;sensor_type;location;lat;lon;timestamp;pressure;altitude;pressure_sealevel;temperature;humidity
76095;BME280;64821;13.710;100.604;2023-06-04T00:00:24;100782.63;;;37.27;42.85
76095;BME280;64821;13.710;100.604;2023-06-04T00:01:28;100772.09;;;37.17;42.96
76095;BME280;64821;13.710;100.604;2023-06-04T00:02:31;100777.44;;;37.26;42.70
76095;BME280;64821;13.710;100.604;2023-06-04T00:03:35;100781.81;;;37.27;42.73
76095;BME280;64821;13.710;100.604;2023-06-04T00:04:39;100785.28;;;37.24;42.97
76095;BME280;64821;13.710;100.604;2023-06-04T00:05:43;100773.59;;;37.15;42.83
76095;BME280;64821;13.710;100.604;2023-06-04T00:06:47;100788.78;;;37.21;43.05
76095;BME280;64821;13.710;100.604;2023-06-04T00:07:51;100790.63;;;37.17;42.98
76095;BME280;64821;13.710;100.604;2023-06-04T00:08:54;100793.84;;;37.19;43.16
76095;BME280;64821;13.710;100.604;2023-06-04T00:09:58;100790.28;;;37.18;43.29
76095;BME280;64821;13.710;100.604;2023-06-04T00:11:02;100797.50;;;37.23;42.92
76095;BME280;64821;13.710;100.604;2023-06-04T00:12:08;100803.81;;;37.23;43.08
76095;BME280;64821;13.710;100.604;2023-06-04T00:13:11;100801.97;;;37.27;42.93
76095;BME280;64821;13.710;100.604;2023-06-04T00:14:15;100806.22;;;37.25;43.03
76095;BME280;64821;13.710;100.604;2023-06-04T00:15:19;100809.00;;;37.25;43.03
76095;BME280;64821;13.710;100.604;2023-06-04T00:16:23;100802.31;;;37.26;42.70
76095;BME280;64821;13.710;100.604;2023-06-04T00:17:26;100807.69;;;37.34;42.72
76095;BME280;64821;13.710;100.604;2023-06-04T00:18:30;100802.25;;;37.38;42.21
76095;BME280;64821;13.710;100.604;2023-06-04T00:19:34;100805.91;;;37.42;43.15
76095;BME280;64821;13.710;100.604;2023-06-04T00:20:37;100809.84;;;37.41;42.68
76095;BME280;64821;13.710;100.604;2023-06-04T00:21:41;100807.84;;;37.41;42.58
76095;BME280;64821;13.710;100.604;2023-06-04T00:22:45;100809.03;;;37.40;42.65
76095;BME280;64821;13.710;100.604;2023-06-04T00:23:48;100810.88;;;37.36;42.45
76095;BME280;64821;13.710;100.604;2023-06-04T00:24:52;100811.69;;;37.37;42.53
76095;BME280;64821;13.710;100.604;2023-06-04T00:25:56;100811.00;;;37.40;42.55
76095;BME280;64821;13.710;100.604;2023-06-04T00:27:00;100819.00;;;37.45;42.39
76095;BME280;64821;13.710;100.604;2023-06-04T00:28:05;100795.66;;;37.42;42.38
76095;BME280;64821;13.710;100.604;2023-06-04T00:29:09;100807.34;;;37.52;42.31
76095;BME280;64821;13.710;100.604;2023-06-04T00:30:13;100820.44;;;37.55;42.54
76095;BME280;64821;13.710;100.604;2023-06-04T00:31:17;100815.38;;;37.57;42.30
76095;BME280;64821;13.710;100.604;2023-06-04T00:32:21;100813.88;;;37.59;42.11
76095;BME280;64821;13.710;100.604;2023-06-04T00:33:25;100820.66;;;37.62;42.16
76095;BME280;64821;13.710;100.604;2023-06-04T00:34:28;100825.47;;;37.65;42.12
76095;BME280;64821;13.710;100.604;2023-06-04T00:35:32;100825.13;;;37.66;41.97
76095;BME280;64821;13.710;100.604;2023-06-04T00:36:36;100826.38;;;37.69;41.96
76095;BME280;64821;13.710;100.604;2023-06-04T00:37:40;100826.81;;;37.71;42.25
76095;BME280;64821;13.710;100.604;2023-06-04T00:38:43;100833.59;;;37.73;41.85
76095;BME280;64821;13.710;100.604;2023-06-04T00:39:47;100833.59;;;37.73;41.59
76095;BME280;64821;13.710;100.604;2023-06-04T00:40:51;100830.13;;;37.76;41.82
76095;BME280;64821;13.710;100.604;2023-06-04T00:41:54;100835.66;;;37.76;41.80
76095;BME280;64821;13.710;100.604;2023-06-04T00:42:58;100840.50;;;37.80;41.55
76095;BME280;64821;13.710;100.604;2023-06-04T00:44:03;100848.56;;;37.72;41.89
76095;BME280;64821;13.710;100.604;2023-06-04T00:45:08;100842.63;;;37.70;41.74
76095;BME280;64821;13.710;100.604;2023-06-04T00:46:12;100846.97;;;37.71;41.77
76095;BME280;64821;13.710;100.604;2023-06-04T00:47:19;100842.16;;;37.68;41.69
76095;BME280;64821;13.710;100.604;2023-06-04T00:48:24;100836.53;;;37.65;41.91
76095;BME280;64821;13.710;100.604;2023-06-04T00:49:28;100843.94;;;37.76;41.82
76095;BME280;64821;13.710;100.604;2023-06-04T00:50:32;100848.69;;;37.76;41.84
76095;BME280;64821;13.710;100.604;2023-06-04T00:51:36;100851.78;;;37.74;41.87
76095;BME280;64821;13.710;100.604;2023-06-04T00:52:40;100853.59;;;37.67;41.83
76095;BME280;64821;13.710;100.604;2023-06-04T00:53:43;100854.47;;;37.71;41.76
76095;BME280;64821;13.710;100.604;2023-06-04T00:54:47;100851.00;;;37.74;41.86
76095;BME280;64821;13.710;100.604;2023-06-04T00:55:51;100857.44;;;37.78;41.90
76095;BME280;64821;13.710;100.604;2023-06-04T00:56:55;100858.94;;;37.75;41.77
76095;BME280;64821;13.710;100.604;2023-06-04T00:57:59;100860.19;;;37.78;41.51
76095;BME280;64821;13.710;100.604;2023-06-04T00:59:04;100863.84;;;37.82;41.40
76095;BME280;64821;13.710;100.604;2023-06-04T01:00:10;100859.84;;;37.80;41.23
76095;BME280;64821;13.710;100.604;2023-06-04T01:01:18;100865.44;;;37.83;41.38
76095;BME280;64821;13.710;100.604;2023-06-04T01:02:24;100871.31;;;37.82;41.29
76095;BME280;64821;13.710;100.604;2023-06-04T01:03:29;100864.56;;;37.79;41.11
76095;BME280;64821;13.710;100.604;2023-06-04T01:04:40;100861.41;;;37.81;41.22
76095;BME280;64821;13.710;100.604;2023-06-04T01:05:51;100866.25;;;37.84;41.42
76095;BME280;64821;13.710;100.604;2023-06-04T01:07:02;100863.75;;;37.78;41.37
76095;BME280;64821;13.710;100.604;2023-06-04T01:08:06;100872.13;;;37.82;41.18
76095;BME280;64821;13.710;100.604;2023-06-04T01:09:10;100871.31;;;37.82;41.15
76095;BME280;64821;13.710;100.604;2023-06-04T01:10:14;100876.84;;;37.82;41.08
76095;BME280;64821;13.710;100.604;2023-06-04T01:11:18;100876.97;;;37.85;40.61
76095;BME280;64821;13.710;100.604;2023-06-04T01:12:22;100875.09;;;37.89;40.52
76095;BME280;64821;13.710;100.604;2023-06-04T01:13:26;100876.78;;;37.94;40.57
76095;BME280;64821;13.710;100.604;2023-06-04T01:14:31;100876.44;;;37.95;40.54
76095;BME280;64821;13.710;100.604;2023-06-04T01:15:35;100874.13;;;37.97;40.53
76095;BME280;64821;13.710;100.604;2023-06-04T01:16:42;100876.94;;;38.01;39.74
76095;BME280;64821;13.710;100.604;2023-06-04T01:17:49;100879.72;;;38.01;40.00
76095;BME280;64821;13.710;100.604;2023-06-04T01:18:56;100871.81;;;37.99;40.39
76095;BME280;64821;13.710;100.604;2023-06-04T01:20:16;100845.28;;;37.83;40.12
76095;BME280;64821;13.710;100.604;2023-06-04T01:21:22;100885.00;;;38.06;40.21
76095;BME280;64821;13.710;100.604;2023-06-04T01:22:33;100882.22;;;38.06;39.77
76095;BME280;64821;13.710;100.604;2023-06-04T01:23:44;100887.44;;;38.07;40.19
76095;BME280;64821;13.710;100.604;2023-06-04T01:24:53;100881.91;;;38.07;39.90
76095;BME280;64821;13.710;100.604;2023-06-04T01:26:00;100890.66;;;38.09;40.00
76095;BME280;64821;13.710;100.604;2023-06-04T01:27:05;100866.59;;;37.82;40.14
76095;BME280;64821;13.710;100.604;2023-06-04T01:28:09;100850.63;;;37.75;40.04
76095;BME280;64821;13.710;100.604;2023-06-04T01:29:13;100887.66;;;38.02;39.87
76095;BME280;64821;13.710;100.604;2023-06-04T01:30:21;100894.28;;;37.98;39.89
76095;BME280;64821;13.710;100.604;2023-06-04T01:31:26;100894.34;;;38.01;40.09
76095;BME280;64821;13.710;100.604;2023-06-04T01:32:30;100892.75;;;38.00;40.11
76095;BME280;64821;13.710;100.604;2023-06-04T01:33:34;100898.28;;;38.00;40.03
76095;BME280;64821;13.710;100.604;2023-06-04T01:34:44;100873.84;;;37.87;39.85
76095;BME280;64821;13.710;100.604;2023-06-04T01:35:48;100904.03;;;38.07;40.18
76095;BME280;64821;13.710;100.604;2023-06-04T01:36:52;100896.75;;;38.03;40.30
76095;BME280;64821;13.710;100.604;2023-06-04T01:37:56;100857.94;;;37.84;41.38
76095;BME280;64821;13.710;100.604;2023-06-04T01:38:59;100894.28;;;38.13;40.68
76095;BME280;64821;13.710;100.604;2023-06-04T01:40:03;100907.41;;;38.17;40.64
76095;BME280;64821;13.710;100.604;2023-06-04T01:41:07;100907.13;;;38.22;39.91
76095;BME280;64821;13.710;100.604;2023-06-04T01:42:11;100903.66;;;38.25;40.18
76095;BME280;64821;13.710;100.604;2023-06-04T01:43:14;100902.59;;;38.29;39.81
76095;BME280;64821;13.710;100.604;2023-06-04T01:44:18;100905.44;;;38.33;39.65
76095;BME280;64821;13.710;100.604;2023-06-04T01:45:24;100901.41;;;38.30;39.93
76095;BME280;64821;13.710;100.604;2023-06-04T01:46:28;100899.91;;;38.33;39.81
76095;BME280;64821;13.710;100.604;2023-06-04T01:47:32;100915.44;;;38.37;40.11
76095;BME280;64821;13.710;100.604;2023-06-04T01:48:36;100901.59;;;38.37;39.87
76095;BME280;64821;13.710;100.604;2023-06-04T01:49:39;100905.44;;;38.33;40.05
76095;BME280;64821;13.710;100.604;2023-06-04T01:50:43;100906.59;;;38.32;39.39
76095;BME280;64821;13.710;100.604;2023-06-04T01:51:46;100907.84;;;38.34;39.63
76095;BME280;64821;13.710;100.604;2023-06-04T01:52:50;100895.38;;;38.25;39.71
76095;BME280;64821;13.710;100.604;2023-06-04T01:53:54;100916.97;;;38.35;40.06
76095;BME280;64821;13.710;100.604;2023-06-04T01:54:57;100914.66;;;38.37;39.51
76095;BME280;64821;13.710;100.604;2023-06-04T01:56:01;100911.53;;;38.38;39.77
76095;BME280;64821;13.710;100.604;2023-06-04T01:57:05;100916.31;;;38.41;39.50
76095;BME280;64821;13.710;100.604;2023-06-04T01:58:09;100915.16;;;38.42;39.82
76095;BME280;64821;13.710;100.604;2023-06-04T01:59:13;100914.34;;;38.42;39.83
76095;BME280;64821;13.710;100.604;2023-06-04T02:00:17;100919.63;;;38.47;39.17
76095;BME280;64821;13.710;100.604;2023-06-04T02:01:22;100920.84;;;38.49;39.43
76095;BME280;64821;13.710;100.604;2023-06-04T02:02:26;100909.44;;;38.51;39.66
76095;BME280;64821;13.710;100.604;2023-06-04T02:03:30;100872.94;;;38.30;39.17
76095;BME280;64821;13.710;100.604;2023-06-04T02:04:33;100914.72;;;38.56;39.05
76095;BME280;64821;13.710;100.604;2023-06-04T02:05:37;100916.25;;;38.54;38.93
76095;BME280;64821;13.710;100.604;2023-06-04T02:06:41;100914.00;;;38.59;38.82
76095;BME280;64821;13.710;100.604;2023-06-04T02:07:45;100913.56;;;38.57;39.31
76095;BME280;64821;13.710;100.604;2023-06-04T02:08:49;100908.84;;;38.58;38.68
76095;BME280;64821;13.710;100.604;2023-06-04T02:09:53;100913.94;;;38.56;38.63
76095;BME280;64821;13.710;100.604;2023-06-04T02:10:56;100921.66;;;38.50;38.31
76095;BME280;64821;13.710;100.604;2023-06-04T02:12:00;100916.75;;;38.59;38.42
76095;BME280;64821;13.710;100.604;2023-06-04T02:13:04;100919.72;;;38.66;38.66
76095;BME280;64821;13.710;100.604;2023-06-04T02:14:07;100916.25;;;38.54;38.77
76095;BME280;64821;13.710;100.604;2023-06-04T02:15:11;100919.00;;;38.54;38.51
76095;BME280;64821;13.710;100.604;2023-06-04T02:16:15;100911.31;;;38.63;38.06
76095;BME280;64821;13.710;100.604;2023-06-04T02:17:20;100910.88;;;38.61;38.46
76095;BME280;64821;13.710;100.604;2023-06-04T02:18:24;100918.81;;;38.62;38.32
76095;BME280;64821;13.710;100.604;2023-06-04T02:19:27;100914.00;;;38.59;37.39
76095;BME280;64821;13.710;100.604;2023-06-04T02:20:31;100912.56;;;38.65;38.31
76095;BME280;64821;13.710;100.604;2023-06-04T02:21:35;100913.97;;;38.75;38.41
76095;BME280;64821;13.710;100.604;2023-06-04T02:22:38;100909.28;;;38.79;38.44
76095;BME280;64821;13.710;100.604;2023-06-04T02:23:42;100909.75;;;38.81;38.30
76095;BME280;64821;13.710;100.604;2023-06-04T02:24:46;100892.53;;;38.72;38.26
76095;BME280;64821;13.710;100.604;2023-06-04T02:25:49;100900.72;;;38.84;38.15
76095;BME280;64821;13.710;100.604;2023-06-04T02:26:53;100908.31;;;38.87;37.70
76095;BME280;64821;13.710;100.604;2023-06-04T02:27:57;100911.88;;;38.88;37.66
76095;BME280;64821;13.710;100.604;2023-06-04T02:29:01;100910.28;;;38.86;37.43
76095;BME280;64821;13.710;100.604;2023-06-04T02:30:05;100904.75;;;38.86;37.45
76095;BME280;64821;13.710;100.604;2023-06-04T02:31:09;100906.75;;;38.90;37.78
76095;BME280;64821;13.710;100.604;2023-06-04T02:32:13;100898.03;;;38.88;37.42
76095;BME280;64821;13.710;100.604;2023-06-04T02:33:18;100905.91;;;38.85;37.51
76095;BME280;64821;13.710;100.604;2023-06-04T02:34:22;100899.34;;;38.43;37.93
76095;BME280;64821;13.710;100.604;2023-06-04T02:35:25;100861.16;;;38.33;38.07
76095;BME280;64821;13.710;100.604;2023-06-04T02:36:29;100894.06;;;38.69;37.85
76095;BME280;64821;13.710;100.604;2023-06-04T02:37:33;100894.13;;;38.73;38.39
76095;BME280;64821;13.710;100.604;2023-06-04T02:38:37;100894.69;;;38.78;37.89
76095;BME280;64821;13.710;100.604;2023-06-04T02:39:40;100892.31;;;38.80;37.55
76095;BME280;64821;13.710;100.604;2023-06-04T02:40:44;100886.38;;;38.78;37.57
76095;BME280;64821;13.710;100.604;2023-06-04T02:41:48;100895.53;;;38.82;38.14
76095;BME280;64821;13.710;100.604;2023-06-04T02:42:52;100890.53;;;38.88;38.13
76095;BME280;64821;13.710;100.604;2023-06-04T02:43:56;100885.75;;;38.88;37.72
76095;BME280;64821;13.710;100.604;2023-06-04T02:45:00;100889.28;;;38.85;38.16
76095;BME280;64821;13.710;100.604;2023-06-04T02:46:03;100890.16;;;38.90;38.09
76095;BME280;64821;13.710;100.604;2023-06-04T02:47:07;100897.75;;;38.93;37.71
76095;BME280;64821;13.710;100.604;2023-06-04T02:48:11;100879.72;;;38.83;37.68
76095;BME280;64821;13.710;100.604;2023-06-04T02:49:16;100893.91;;;38.97;37.80
76095;BME280;64821;13.710;100.604;2023-06-04T02:50:20;100899.50;;;39.01;37.88
76095;BME280;64821;13.710;100.604;2023-06-04T02:51:24;100901.94;;;39.02;37.33
76095;BME280;64821;13.710;100.604;2023-06-04T02:52:27;100902.38;;;39.04;37.76
76095;BME280;64821;13.710;100.604;2023-06-04T02:53:31;100901.56;;;39.04;37.90
76095;BME280;64821;13.710;100.604;2023-06-04T02:54:35;100896.38;;;39.02;37.36
76095;BME280;64821;13.710;100.604;2023-06-04T02:55:38;100893.63;;;39.02;37.65
76095;BME280;64821;13.710;100.604;2023-06-04T02:56:42;100897.63;;;39.05;38.19
76095;BME280;64821;13.710;100.604;2023-06-04T02:57:46;100901.56;;;39.04;37.99
76095;BME280;64821;13.710;100.604;2023-06-04T02:58:50;100899.50;;;39.01;37.35
76095;BME280;64821;13.710;100.604;2023-06-04T02:59:53;100891.56;;;38.99;37.74
76095;BME280;64821;13.710;100.604;2023-06-04T03:00:57;100890.84;;;39.02;37.48
76095;BME280;64821;13.710;100.604;2023-06-04T03:02:01;100889.78;;;39.07;37.75
76095;BME280;64821;13.710;100.604;2023-06-04T03:03:05;100882.75;;;39.13;37.52
76095;BME280;64821;13.710;100.604;2023-06-04T03:04:09;100882.69;;;39.09;37.28
76095;BME280;64821;13.710;100.604;2023-06-04T03:05:16;100886.69;;;39.12;37.75
76095;BME280;64821;13.710;100.604;2023-06-04T03:06:21;100880.25;;;39.08;37.04
76095;BME280;64821;13.710;100.604;2023-06-04T03:07:25;100886.56;;;39.05;37.44
76095;BME280;64821;13.710;100.604;2023-06-04T03:08:29;100892.59;;;39.10;37.95
76095;BME280;64821;13.710;100.604;2023-06-04T03:09:33;100884.16;;;39.03;38.26
76095;BME280;64821;13.710;100.604;2023-06-04T03:10:36;100895.81;;;39.12;38.27
76095;BME280;64821;13.710;100.604;2023-06-04T03:11:40;100891.78;;;39.10;38.20
76095;BME280;64821;13.710;100.604;2023-06-04T03:12:44;100886.03;;;39.18;38.12
76095;BME280;64821;13.710;100.604;2023-06-04T03:13:48;100892.38;;;39.19;37.86
76095;BME280;64821;13.710;100.604;2023-06-04T03:14:52;100882.97;;;39.23;37.81
76095;BME280;64821;13.710;100.604;2023-06-04T03:15:56;100877.44;;;39.23;38.56
76095;BME280;64821;13.710;100.604;2023-06-04T03:17:00;100863.06;;;39.18;38.08
76095;BME280;64821;13.710;100.604;2023-06-04T03:18:03;100881.44;;;39.26;38.58
76095;BME280;64821;13.710;100.604;2023-06-04T03:19:07;100889.16;;;39.36;38.17
76095;BME280;64821;13.710;100.604;2023-06-04T03:20:12;100886.91;;;39.42;37.79
76095;BME280;64821;13.710;100.604;2023-06-04T03:21:17;100888.97;;;39.26;38.55
76095;BME280;64821;13.710;100.604;2023-06-04T03:22:21;100888.88;;;39.41;37.74
76095;BME280;64821;13.710;100.604;2023-06-04T03:23:25;100885.88;;;39.50;37.64
76095;BME280;64821;13.710;100.604;2023-06-04T03:24:28;100889.53;;;39.54;37.75
76095;BME280;64821;13.710;100.604;2023-06-04T03:25:32;100876.91;;;39.56;37.98
76095;BME280;64821;13.710;100.604;2023-06-04T03:26:36;100890.53;;;39.65;37.18
76095;BME280;64821;13.710;100.604;2023-06-04T03:27:39;100877.09;;;39.67;37.59
76095;BME280;64821;13.710;100.604;2023-06-04T03:28:43;100890.28;;;39.74;37.39
76095;BME280;64821;13.710;100.604;2023-06-04T03:29:47;100882.41;;;39.76;36.86
76095;BME280;64821;13.710;100.604;2023-06-04T03:30:50;100874.94;;;39.80;37.31
76095;BME280;64821;13.710;100.604;2023-06-04T03:31:54;100881.53;;;39.72;37.18
76095;BME280;64821;13.710;100.604;2023-06-04T03:32:58;100888.00;;;39.79;37.21
76095;BME280;64821;13.710;100.604;2023-06-04T03:34:02;100888.31;;;39.74;37.25
76095;BME280;64821;13.710;100.604;2023-06-04T03:35:06;100886.94;;;39.84;36.89
76095;BME280;64821;13.710;100.604;2023-06-04T03:36:10;100888.06;;;39.83;36.70
76095;BME280;64821;13.710;100.604;2023-06-04T03:37:16;100888.91;;;39.83;37.32
76095;BME280;64821;13.710;100.604;2023-06-04T03:38:20;100885.09;;;39.91;36.69
76095;BME280;64821;13.710;100.604;2023-06-04T03:39:24;100878.84;;;39.75;37.02
76095;BME280;64821;13.710;100.604;2023-06-04T03:40:27;100879.75;;;39.83;36.63
76095;BME280;64821;13.710;100.604;2023-06-04T03:41:31;100880.63;;;39.87;36.84
76095;BME280;64821;13.710;100.604;2023-06-04T03:42:35;100880.41;;;39.96;36.23
76095;BME280;64821;13.710;100.604;2023-06-04T03:43:38;100880.69;;;39.90;37.13
76095;BME280;64821;13.710;100.604;2023-06-04T03:44:42;100880.34;;;39.92;37.25
76095;BME280;64821;13.710;100.604;2023-06-04T03:45:46;100874.91;;;39.99;37.10
76095;BME280;64821;13.710;100.604;2023-06-04T03:46:49;100871.81;;;40.04;36.47
76095;BME280;64821;13.710;100.604;2023-06-04T03:47:53;100869.09;;;40.08;36.30
76095;BME280;64821;13.710;100.604;2023-06-04T03:48:57;100871.88;;;40.08;36.53
76095;BME280;64821;13.710;100.604;2023-06-04T03:50:01;100865.09;;;40.05;36.43
76095;BME280;64821;13.710;100.604;2023-06-04T03:51:04;100865.50;;;40.07;36.38
76095;BME280;64821;13.710;100.604;2023-06-04T03:52:08;100867.81;;;40.02;36.87
76095;BME280;64821;13.710;100.604;2023-06-04T03:53:14;100854.19;;;39.93;36.55
76095;BME280;64821;13.710;100.604;2023-06-04T03:54:17;100849.88;;;39.96;36.92
76095;BME280;64821;13.710;100.604;2023-06-04T03:55:21;100856.78;;;40.05;36.45
76095;BME280;64821;13.710;100.604;2023-06-04T03:56:25;100864.72;;;40.07;35.69
76095;BME280;64821;13.710;100.604;2023-06-04T03:57:29;100868.00;;;40.12;36.25
76095;BME280;64821;13.710;100.604;2023-06-04T03:58:32;100858.06;;;40.11;36.38
76095;BME280;64821;13.710;100.604;2023-06-04T03:59:38;100851.44;;;40.19;36.08
76095;BME280;64821;13.710;100.604;2023-06-04T04:00:42;100852.59;;;40.18;36.39
76095;BME280;64821;13.710;100.604;2023-06-04T04:01:45;100856.63;;;40.21;36.21
76095;BME280;64821;13.710;100.604;2023-06-04T04:02:49;100843.13;;;40.19;37.02
76095;BME280;64821;13.710;100.604;2023-06-04T04:03:53;100848.13;;;40.10;36.25
76095;BME280;64821;13.710;100.604;2023-06-04T04:04:57;100842.41;;;40.00;36.75
76095;BME280;64821;13.710;100.604;2023-06-04T04:06:01;100846.16;;;40.11;35.69
76095;BME280;64821;13.710;100.604;2023-06-04T04:07:10;100846.75;;;40.23;35.80
76095;BME280;64821;13.710;100.604;2023-06-04T04:08:15;100842.81;;;40.24;36.09
76095;BME280;64821;13.710;100.604;2023-06-04T04:09:19;100837.00;;;40.33;35.42
76095;BME280;64821;13.710;100.604;2023-06-04T04:10:23;100833.53;;;40.40;35.22
76095;BME280;64821;13.710;100.604;2023-06-04T04:11:26;100824.50;;;40.46;35.25
76095;BME280;64821;13.710;100.604;2023-06-04T04:12:30;100825.41;;;40.54;35.39
76095;BME280;64821;13.710;100.604;2023-06-04T04:13:34;100818.34;;;40.60;35.60
76095;BME280;64821;13.710;100.604;2023-06-04T04:14:38;100821.19;;;40.63;35.18
76095;BME280;64821;13.710;100.604;2023-06-04T04:15:41;100801.25;;;40.58;34.52
76095;BME280;64821;13.710;100.604;2023-06-04T04:16:46;100802.94;;;40.66;34.91
76095;BME280;64821;13.710;100.604;2023-06-04T04:17:50;100793.81;;;40.65;34.50
76095;BME280;64821;13.710;100.604;2023-06-04T04:18:54;100810.25;;;40.78;35.11
76095;BME280;64821;13.710;100.604;2023-06-04T04:19:58;100805.94;;;40.80;35.17
76095;BME280;64821;13.710;100.604;2023-06-04T04:21:01;100801.59;;;40.83;34.71
76095;BME280;64821;13.710;100.604;2023-06-04T04:22:06;100798.84;;;40.86;34.58
76095;BME280;64821;13.710;100.604;2023-06-04T04:23:09;100799.28;;;40.88;35.40
76095;BME280;64821;13.710;100.604;2023-06-04T04:24:24;100792.13;;;40.87;34.89
76095;BME280;64821;13.710;100.604;2023-06-04T04:25:28;100801.75;;;40.97;34.80
76095;BME280;64821;13.710;100.604;2023-06-04T04:26:31;100796.91;;;40.90;35.06
76095;BME280;64821;13.710;100.604;2023-06-04T04:27:35;100793.88;;;41.02;34.82
76095;BME280;64821;13.710;100.604;2023-06-04T04:28:39;100789.13;;;41.03;34.13
76095;BME280;64821;13.710;100.604;2023-06-04T04:29:42;100795.13;;;41.09;34.47
76095;BME280;64821;13.710;100.604;2023-06-04T04:30:46;100793.97;;;41.10;34.34
76095;BME280;64821;13.710;100.604;2023-06-04T04:31:53;100785.69;;;41.13;34.45
76095;BME280;64821;13.710;100.604;2023-06-04T04:32:57;100786.47;;;41.14;35.06
76095;BME280;64821;13.710;100.604;2023-06-04T04:34:01;100769.22;;;40.97;35.19
76095;BME280;64821;13.710;100.604;2023-06-04T04:35:05;100777.28;;;41.10;34.71
76095;BME280;64821;13.710;100.604;2023-06-04T04:36:09;100776.03;;;41.03;34.22
76095;BME280;64821;13.710;100.604;2023-06-04T04:37:13;100783.56;;;41.03;34.81
76095;BME280;64821;13.710;100.604;2023-06-04T04:38:16;100765.25;;;40.98;34.32
76095;BME280;64821;13.710;100.604;2023-06-04T04:39:21;100769.28;;;41.04;34.12
76095;BME280;64821;13.710;100.604;2023-06-04T04:40:27;100753.75;;;41.00;34.47
76095;BME280;64821;13.710;100.604;2023-06-04T04:41:31;100761.59;;;40.91;34.38
76095;BME280;64821;13.710;100.604;2023-06-04T04:42:34;100762.06;;;40.63;34.61
76095;BME280;64821;13.710;100.604;2023-06-04T04:43:38;100763.75;;;40.71;35.11
76095;BME280;64821;13.710;100.604;2023-06-04T04:44:42;100753.94;;;40.81;34.56
76095;BME280;64821;13.710;100.604;2023-06-04T04:45:45;100742.53;;;40.89;34.50
76095;BME280;64821;13.710;100.604;2023-06-04T04:46:49;100750.06;;;40.89;34.08
76095;BME280;64821;13.710;100.604;2023-06-04T04:47:53;100746.00;;;40.79;34.43
76095;BME280;64821;13.710;100.604;2023-06-04T04:48:57;100750.88;;;40.89;34.46
76095;BME280;64821;13.710;100.604;2023-06-04T04:50:00;100753.28;;;40.94;34.78
76095;BME280;64821;13.710;100.604;2023-06-04T04:51:04;100742.19;;;40.94;35.00
76095;BME280;64821;13.710;100.604;2023-06-04T04:52:08;100741.41;;;40.97;34.49
76095;BME280;64821;13.710;100.604;2023-06-04T04:53:12;100740.22;;;40.65;34.53
76095;BME280;64821;13.710;100.604;2023-06-04T04:54:16;100736.41;;;40.73;34.62
76095;BME280;64821;13.710;100.604;2023-06-04T04:55:19;100732.94;;;40.83;34.07
76095;BME280;64821;13.710;100.604;2023-06-04T04:56:25;100727.78;;;40.82;34.42
76095;BME280;64821;13.710;100.604;2023-06-04T04:57:28;100730.19;;;40.53;34.37
76095;BME280;64821;13.710;100.604;2023-06-04T04:58:32;100727.22;;;40.69;34.72
76095;BME280;64821;13.710;100.604;2023-06-04T04:59:36;100723.84;;;40.86;34.33
76095;BME280;64821;13.710;100.604;2023-06-04T05:00:39;100711.53;;;40.87;34.16
76095;BME280;64821;13.710;100.604;2023-06-04T05:01:43;100714.47;;;41.01;34.15
76095;BME280;64821;13.710;100.604;2023-06-04T05:02:47;100716.59;;;41.12;34.30
76095;BME280;64821;13.710;100.604;2023-06-04T05:03:51;100718.69;;;41.22;34.32
76095;BME280;64821;13.710;100.604;2023-06-04T05:04:55;100671.22;;;41.04;33.92
76095;BME280;64821;13.710;100.604;2023-06-04T05:05:58;100710.03;;;41.34;33.69
76095;BME280;64821;13.710;100.604;2023-06-04T05:07:02;100706.84;;;41.35;33.28
76095;BME280;64821;13.710;100.604;2023-06-04T05:08:06;100688.97;;;41.33;33.80
76095;BME280;64821;13.710;100.604;2023-06-04T05:09:10;100710.09;;;41.45;33.32
76095;BME280;64821;13.710;100.604;2023-06-04T05:10:13;100688.66;;;41.45;33.04
76095;BME280;64821;13.710;100.604;2023-06-04T05:11:17;100698.72;;;41.57;33.21
76095;BME280;64821;13.710;100.604;2023-06-04T05:12:25;100643.66;;;41.29;33.24
76095;BME280;64821;13.710;100.604;2023-06-04T05:13:29;100688.81;;;41.63;33.09
76095;BME280;64821;13.710;100.604;2023-06-04T05:14:33;100682.88;;;41.64;32.74
76095;BME280;64821;13.710;100.604;2023-06-04T05:15:36;100644.97;;;41.42;32.44
76095;BME280;64821;13.710;100.604;2023-06-04T05:16:40;100685.72;;;41.71;32.91
76095;BME280;64821;13.710;100.604;2023-06-04T05:17:45;100682.13;;;41.74;33.17
76095;BME280;64821;13.710;100.604;2023-06-04T05:18:49;100676.19;;;41.76;33.07
76095;BME280;64821;13.710;100.604;2023-06-04T05:19:53;100677.44;;;41.86;32.72
76095;BME280;64821;13.710;100.604;2023-06-04T05:20:57;100684.56;;;41.83;32.91
76095;BME280;64821;13.710;100.604;2023-06-04T05:22:01;100670.69;;;41.87;32.68
76095;BME280;64821;13.710;100.604;2023-06-04T05:23:05;100676.63;;;41.85;32.19
76095;BME280;64821;13.710;100.604;2023-06-04T05:24:08;100671.53;;;41.94;32.90
76095;BME280;64821;13.710;100.604;2023-06-04T05:25:14;100681.91;;;41.97;31.64
76095;BME280;64821;13.710;100.604;2023-06-04T05:26:17;100666.69;;;41.84;31.13
76095;BME280;64821;13.710;100.604;2023-06-04T05:27:23;100670.38;;;42.02;31.62